Time;durP1;ratioP1;P1;durP2;ratioP2;P2;SDS_P1;SDS_P2;PMS_P1;PMS_P2;Temp;Humidity;BMP_temperature;BMP_pressure;BME280_temperature;BME280_humidity;BME280_pressure;Samples;Min_cycle;Max_cycle;Signal;HPM_P1;HPM_P2
2023/04/05 21:06:16;;;;;;;54.70;3.75;;;;;;;25.32;46.30;99909.91;7344176;19;129370;-40
2023/04/05 21:08:42;;;;;;;46.30;3.23;;;;;;;25.24;46.58;99906.38;7341872;19;130643;-40
2023/04/05 21:11:10;;;;;;;51.78;4.13;;;;;;;25.11;46.95;99905.97;7340597;19;129337;-40
2023/04/05 21:13:36;;;;;;;259.90;14.27;;;;;;;25.02;46.91;99904.28;7336061;19;129700;-42
2023/04/05 21:16:01;;;;;;;73.70;4.33;;;;;;;24.83;47.24;99888.69;7341972;19;129246;-41
2023/04/05 21:18:26;;;;;;;13.40;1.53;;;;;;;24.79;47.66;99911.03;7346985;19;129238;-40
2023/04/05 21:20:53;;;;;;;45.70;3.13;;;;;;;24.59;47.60;99888.47;7345402;19;130615;-39
2023/04/05 21:23:20;;;;;;;57.23;3.53;;;;;;;24.51;48.17;99906.81;7342879;19;129675;-39
2023/04/05 21:25:46;;;;;;;59.78;3.78;;;;;;;24.43;48.53;99900.50;7338854;19;129847;-41
2023/04/05 21:28:12;;;;;;;65.73;4.10;;;;;;;24.37;48.65;99897.63;7344326;19;129405;-41
2023/04/05 21:30:37;;;;;;;55.00;3.73;;;;;;;24.32;49.03;99903.34;7343367;19;129088;-43
2023/04/05 21:33:03;;;;;;;97.23;5.53;;;;;;;24.21;49.26;99895.66;7341495;19;129229;-38
2023/04/05 21:35:28;;;;;;;50.73;3.07;;;;;;;24.10;49.63;99897.69;7342591;19;130402;-40
2023/04/05 21:37:54;;;;;;;49.47;3.13;;;;;;;24.00;49.80;99891.66;7343526;19;129443;-40
2023/04/05 21:40:20;;;;;;;32.10;2.30;;;;;;;23.91;50.04;99896.00;7343264;19;130001;-41
2023/04/05 21:42:45;;;;;;;49.28;2.97;;;;;;;23.85;50.45;99893.94;7343556;19;129455;-41
2023/04/05 21:45:11;;;;;;;75.20;4.43;;;;;;;23.75;50.67;99893.16;7343915;19;129441;-40
2023/04/05 21:47:36;;;;;;;34.93;2.23;;;;;;;23.69;50.70;99887.66;7346857;19;128819;-40
2023/04/05 21:50:02;;;;;;;52.47;3.10;;;;;;;23.63;51.09;99894.34;7343666;19;130146;-43
2023/04/05 21:52:28;;;;;;;59.97;3.65;;;;;;;23.50;51.63;99872.88;7341900;19;129578;-41
2023/04/05 21:54:54;;;;;;;47.00;3.00;;;;;;;23.49;51.34;99892.19;7343033;19;129191;-38
2023/04/05 21:57:19;;;;;;;60.90;3.78;;;;;;;23.41;51.74;99886.84;7343689;19;129743;-41
2023/04/05 21:59:45;;;;;;;43.95;2.72;;;;;;;23.31;51.57;99872.09;7343709;19;129639;-40
2023/04/05 22:02:11;;;;;;;62.58;3.58;;;;;;;23.24;52.55;99879.69;7341687;19;129133;-42
2023/04/05 22:04:37;;;;;;;47.47;3.07;;;;;;;23.18;52.71;99882.88;7341365;19;129099;-44
2023/04/05 22:07:03;;;;;;;49.95;3.55;;;;;;;23.17;52.13;99886.50;7342624;19;129760;-41
2023/04/05 22:09:28;;;;;;;46.63;3.13;;;;;;;23.10;52.53;99880.16;7342097;19;129149;-41
2023/04/05 22:11:53;;;;;;;47.57;3.10;;;;;;;23.03;52.58;99879.91;7342034;19;130010;-39
2023/04/05 22:14:19;;;;;;;48.77;3.13;;;;;;;22.95;52.52;99873.69;7341635;19;129016;-38
2023/04/05 22:16:44;;;;;;;30.27;2.17;;;;;;;22.91;53.21;99880.19;7325119;19;129489;-39
2023/04/05 22:19:11;;;;;;;48.03;2.90;;;;;;;22.84;53.17;99873.88;7316383;19;129219;-39
2023/04/05 22:21:36;;;;;;;77.00;4.33;;;;;;;22.80;53.24;99882.97;7312108;19;129413;-38
2023/04/05 22:24:02;;;;;;;49.03;3.00;;;;;;;22.72;53.92;99882.84;7310169;19;130028;-43
2023/04/05 22:26:28;;;;;;;52.45;3.38;;;;;;;22.70;53.84;99877.75;7313201;19;129597;-42
2023/04/05 22:28:53;;;;;;;59.97;3.25;;;;;;;22.61;53.83;99883.00;7312714;19;129853;-40
2023/04/05 22:31:19;;;;;;;75.13;4.23;;;;;;;22.54;54.24;99871.41;7313118;19;130942;-40
2023/04/05 22:33:44;;;;;;;35.22;2.28;;;;;;;22.53;54.30;99874.97;7310723;19;129228;-37
2023/04/05 22:36:09;;;;;;;52.43;3.53;;;;;;;22.46;54.64;99884.34;7312994;19;129695;-40
2023/04/05 22:38:35;;;;;;;68.97;3.83;;;;;;;22.41;54.86;99873.47;7313516;19;131242;-37
2023/04/05 22:41:00;;;;;;;46.10;2.92;;;;;;;22.35;54.47;99877.44;7312451;19;129252;-41
2023/04/05 22:43:26;;;;;;;77.60;4.60;;;;;;;22.34;54.41;99875.81;7310088;19;129769;-40
2023/04/05 22:45:52;;;;;;;45.03;2.80;;;;;;;22.27;54.63;99876.47;7313068;19;128969;-38
2023/04/05 22:48:18;;;;;;;46.90;2.92;;;;;;;22.24;54.84;99879.38;7316188;19;130244;-42
2023/04/05 22:50:44;;;;;;;50.15;3.00;;;;;;;22.20;54.84;99877.97;7313164;19;129590;-41
2023/04/05 22:53:09;;;;;;;46.03;2.83;;;;;;;22.16;54.74;99868.75;7310186;19;130575;-37
2023/04/05 22:55:36;;;;;;;56.20;3.45;;;;;;;22.00;55.42;99860.63;7312605;19;129176;-42
2023/04/05 22:58:02;;;;;;;67.03;3.72;;;;;;;22.08;55.73;99874.66;7313491;19;129730;-42
2023/04/05 23:00:27;;;;;;;42.88;2.63;;;;;;;22.09;55.63;99878.13;7312711;19;129252;-40
2023/04/05 23:02:52;;;;;;;46.33;3.17;;;;;;;22.00;55.11;99863.25;7311028;19;129825;-37
2023/04/05 23:05:18;;;;;;;15.13;1.47;;;;;;;22.05;55.41;99871.50;7309969;19;129927;-40
2023/04/05 23:07:43;;;;;;;72.65;4.13;;;;;;;22.03;55.34;99870.81;7312504;19;129608;-42
2023/04/05 23:10:09;;;;;;;52.53;3.42;;;;;;;21.95;55.43;99872.31;7313233;19;130596;-40
2023/04/05 23:12:35;;;;;;;60.33;3.65;;;;;;;21.98;56.10;99879.88;7309193;19;131033;-40
2023/04/05 23:15:00;;;;;;;38.95;2.45;;;;;;;21.95;55.88;99868.84;7312823;19;130599;-36
2023/04/05 23:17:25;;;;;;;43.13;2.60;;;;;;;21.85;55.95;99868.84;7315393;19;130249;-40
2023/04/05 23:19:51;;;;;;;47.60;2.93;;;;;;;21.92;56.04;99872.59;7313529;19;129791;-38
2023/04/05 23:22:16;;;;;;;37.03;2.30;;;;;;;21.91;55.55;99873.53;7310988;19;129663;-44
2023/04/05 23:24:41;;;;;;;70.93;3.90;;;;;;;21.91;55.94;99868.28;7309573;19;129409;-43
2023/04/05 23:27:07;;;;;;;61.28;3.47;;;;;;;21.91;56.37;99873.53;7311997;19;129051;-43
2023/04/05 23:29:32;;;;;;;39.67;2.58;;;;;;;21.88;56.17;99862.53;7309678;19;129452;-43
2023/04/05 23:31:57;;;;;;;47.92;3.10;;;;;;;21.89;56.27;99869.41;7311382;19;129207;-39
2023/04/05 23:34:23;;;;;;;64.43;3.58;;;;;;;21.91;55.79;99876.16;7308849;19;129764;-43
2023/04/05 23:36:48;;;;;;;29.17;2.13;;;;;;;21.88;56.07;99871.19;7310766;19;129211;-43
2023/04/05 23:39:14;;;;;;;51.25;3.13;;;;;;;21.88;55.99;99873.00;7311900;19;129080;-40
2023/04/05 23:41:40;;;;;;;67.10;4.00;;;;;;;21.84;56.37;99869.81;7309664;19;129296;-42
2023/04/05 23:44:06;;;;;;;71.70;4.00;;;;;;;21.82;56.13;99879.59;7308157;19;129528;-42
2023/04/05 23:46:32;;;;;;;34.17;2.03;;;;;;;21.82;56.70;99868.28;7311722;19;130886;-37
2023/04/05 23:48:57;;;;;;;32.47;2.10;;;;;;;21.80;55.98;99871.03;7313815;19;129602;-39
2023/04/05 23:51:23;;;;;;;77.47;4.67;;;;;;;21.79;56.16;99864.16;7311919;19;129203;-37
2023/04/05 23:53:48;;;;;;;108.67;5.50;;;;;;;21.79;56.27;99858.91;7308198;19;130452;-42
2023/04/05 23:56:14;;;;;;;51.87;3.17;;;;;;;21.79;55.92;99869.41;7311195;19;129518;-38
2023/04/05 23:58:42;;;;;;;47.00;2.90;;;;;;;21.79;56.13;99858.91;7310648;19;129601;-39
